Flight Track Log - Related Links

Times and Time Zones

All times are in EDT time to prevent confusion due to time zone crossing. See the ASQ6115 flight status page for this flight to view local times or setup timezone preferences in your user account.

Time Position Orientation Groundspeed Altitude Reporting Facility
EDT Latitude Longitude Course Direction KTS MPH feet Rate Location/Type
Sat 10:22:39 PM 29.9639 -95.3433 128° Southeast 151 174 700  Level Houston Center
Sat 10:23:51 PM 29.9306 -95.2947 128° Southeast 192 221 2,900 1,940 Climbing Houston Center
Sat 10:24:52 PM 29.8786 -95.2492 143° Southeast 259 298 5,000 2,213 Climbing Houston Center
Sat 10:25:53 PM 29.8072 -95.2597 187° South 260 299 7,400 2,380 Climbing Houston Center
Sat 10:26:53 PM 29.7339 -95.2831 195° South 273 314 9,800 1,686 Climbing Houston Center
Sat 10:27:54 PM 29.6542 -95.3078 195° South 301 346 10,800 1,140 Climbing Houston Center
Sat 10:28:54 PM 29.5444 -95.3422 195° South 348 400 12,100 1,339 Climbing Houston Center
Sat 10:29:55 PM 29.4481 -95.3717 195° South 359 413 13,500 1,377 Climbing Houston Center
Sat 10:30:56 PM 29.3533 -95.4150 202° Southwest 373 429 14,900 1,438 Climbing Houston Center
Sat 10:31:56 PM 29.2722 -95.4853 217° Southwest 369 425 16,400 1,438 Climbing Houston Center
Sat 10:32:57 PM 29.1931 -95.5578 219° Southwest 366 421 17,800 1,328 Climbing Houston Center
Sat 10:33:58 PM 29.1136 -95.6306 219° Southwest 365 420 19,100 1,289 Climbing Houston Center
Sat 10:34:58 PM 29.0325 -95.7058 219° Southwest 374 430 20,400 1,190 Climbing Houston Center
Sat 10:35:59 PM 28.9503 -95.7817 219° Southwest 380 437 21,500 787 Climbing Houston Center
Sat 10:37:00 PM 28.8653 -95.8586 218° Southwest 389 448 22,000 248 Climbing Houston Center
Sat 10:38:00 PM 28.7753 -95.9408 219° Southwest 411 473 22,000 -50 Level Houston Center
Sat 10:39:01 PM 28.6797 -96.0272 218° Southwest 425 489 21,900  Descending Houston Center
Sat 10:40:02 PM 28.5878 -96.1117 219° Southwest 425 489 22,000 50 Climbing Houston Center
Sat 10:41:02 PM 28.4947 -96.1961 219° Southwest 425 489 22,000  Level Houston Center
Sat 10:42:03 PM 28.4056 -96.2775 219° Southwest 412 474 22,000  Level Houston Center
Sat 10:43:04 PM 28.3142 -96.3606 219° Southwest 416 479 22,000  Level Houston Center
Sat 10:44:04 PM 28.2203 -96.4439 218° Southwest 426 490 22,000  Level Houston Center
Sat 10:45:05 PM 28.1267 -96.5269 218° Southwest 426 490 22,000  Level Houston Center
Sat 10:46:06 PM 28.0342 -96.6089 218° Southwest 423 487 22,000  Level Houston Center
Sat 10:47:06 PM 27.9422 -96.6917 219° Southwest 423 487 22,000  Level Houston Center
Sat 10:48:07 PM 27.8331 -96.7900 219° Southwest 418 481 22,000  Level Houston Center
Sat 10:49:08 PM 27.7425 -96.8697 218° Southwest 415 478 22,000  Level Houston Center
Sat 10:50:08 PM 27.6508 -96.9511 218° Southwest 417 480 22,000  Level Houston Center
Sat 10:51:09 PM 27.5603 -97.0328 219° Southwest 417 480 22,000  Level Houston Center
Sat 10:52:10 PM 27.4722 -97.1097 218° Southwest 406 467 22,000 -50 Level Houston Center
Sat 10:53:10 PM 27.3878 -97.1844 218° Southwest 407 468 21,900  Descending Houston Center
Sat 10:54:11 PM 27.2975 -97.2631 218° Southwest 409 471 22,000 56 Climbing Houston Center
Sat 10:54:58 PM 27.2203 -97.3308 218° Southwest 410 472 22,000 -319 Level Houston Center
Sat 10:56:04 PM 27.1206 -97.4197 218° Southwest 403 464 21,400 -756 Descending Houston Center
Sat 10:57:05 PM 27.0336 -97.5092 223° Southwest 399 459 20,400 -1,091 Descending Houston Center
Sat 10:58:05 PM 26.9544 -97.5928 223° Southwest 391 450 19,200 -1,587 Descending Houston Center
Sat 10:59:06 PM 26.8708 -97.6769 222° Southwest 394 453 17,200 -1,820 Descending Houston Center
Sat 11:00:07 PM 26.7953 -97.7572 223° Southwest 385 443 15,500 -1,835 Descending Houston Center
Sat 11:01:07 PM 26.7178 -97.8381 223° Southwest 382 440 13,500 -1,884 Descending Houston Center
Sat 11:02:08 PM 26.6397 -97.9161 222° Southwest 380 437 11,700 -1,569 Descending Houston Center
Sat 11:03:17 PM 26.5678 -97.9892 222° Southwest 314 361 10,100 -1,636 Descending Houston Center
Sat 11:04:09 PM 26.5147 -98.0450 223° Southwest 281 323 8,400 -1,858 Descending Houston Center
Sat 11:05:10 PM 26.4575 -98.1017 222° Southwest 276 318 6,600 -1,785 Descending Houston Center
Sat 11:06:10 PM 26.4044 -98.1575 223° Southwest 265 305 4,800 -1,785 Descending Houston Center
Sat 11:07:11 PM 26.3533 -98.2108 223° Southwest 255 293 3,000 -1,388 Descending Houston Center
Sat 11:08:11 PM 26.3111 -98.2700 231° Southwest 247 284 2,000 -1,000 Descending Houston Center

Login

Don't have an account? Register now (free) for customized features, flight alerts, and more!